sensor_id;sensor_type;location;lat;lon;timestamp;P1;durP1;ratioP1;P2;durP2;ratioP2
66966;SDS011;53900;51.468;-2.586;2023-03-01T00:00:36;1.23;;;0.43;;
66966;SDS011;53900;51.468;-2.586;2023-03-01T00:03:01;1.10;;;0.60;;
66966;SDS011;53900;51.468;-2.586;2023-03-01T00:05:27;3.90;;;0.70;;
66966;SDS011;53900;51.468;-2.586;2023-03-01T00:07:53;0.65;;;0.40;;
66966;SDS011;53900;51.468;-2.586;2023-03-01T00:10:18;0.55;;;0.45;;
66966;SDS011;53900;51.468;-2.586;2023-03-01T00:12:43;0.30;;;0.30;;
66966;SDS011;53900;51.468;-2.586;2023-03-01T00:15:08;0.40;;;0.40;;
66966;SDS011;53900;51.468;-2.586;2023-03-01T00:17:33;0.80;;;0.55;;
66966;SDS011;53900;51.468;-2.586;2023-03-01T00:19:59;0.63;;;0.50;;
66966;SDS011;53900;51.468;-2.586;2023-03-01T00:22:24;0.30;;;0.30;;
66966;SDS011;53900;51.468;-2.586;2023-03-01T00:24:51;0.30;;;0.30;;
66966;SDS011;53900;51.468;-2.586;2023-03-01T00:27:16;0.30;;;0.30;;
66966;SDS011;53900;51.468;-2.586;2023-03-01T00:29:41;0.25;;;0.25;;
66966;SDS011;53900;51.468;-2.586;2023-03-01T00:32:06;0.17;;;0.17;;
66966;SDS011;53900;51.468;-2.586;2023-03-01T00:34:31;0.20;;;0.20;;
66966;SDS011;53900;51.468;-2.586;2023-03-01T00:36:57;0.13;;;0.13;;
66966;SDS011;53900;51.468;-2.586;2023-03-01T00:39:29;0.50;;;0.20;;
66966;SDS011;53900;51.468;-2.586;2023-03-01T00:41:55;1.48;;;0.22;;
66966;SDS011;53900;51.468;-2.586;2023-03-01T00:44:21;0.88;;;0.40;;
66966;SDS011;53900;51.468;-2.586;2023-03-01T00:46:46;0.22;;;0.22;;
66966;SDS011;53900;51.468;-2.586;2023-03-01T00:49:11;0.88;;;0.30;;
66966;SDS011;53900;51.468;-2.586;2023-03-01T00:51:37;0.30;;;0.30;;
66966;SDS011;53900;51.468;-2.586;2023-03-01T00:54:04;0.40;;;0.40;;
66966;SDS011;53900;51.468;-2.586;2023-03-01T00:56:29;0.45;;;0.38;;
66966;SDS011;53900;51.468;-2.586;2023-03-01T00:58:55;0.60;;;0.35;;
66966;SDS011;53900;51.468;-2.586;2023-03-01T01:01:21;0.40;;;0.30;;
66966;SDS011;53900;51.468;-2.586;2023-03-01T01:03:48;0.38;;;0.30;;
66966;SDS011;53900;51.468;-2.586;2023-03-01T01:06:17;0.50;;;0.50;;
66966;SDS011;53900;51.468;-2.586;2023-03-01T01:08:43;0.77;;;0.30;;
66966;SDS011;53900;51.468;-2.586;2023-03-01T01:11:09;2.15;;;0.35;;
66966;SDS011;53900;51.468;-2.586;2023-03-01T01:13:34;2.15;;;0.55;;
66966;SDS011;53900;51.468;-2.586;2023-03-01T01:16:02;0.45;;;0.30;;
66966;SDS011;53900;51.468;-2.586;2023-03-01T01:18:28;1.02;;;0.30;;
66966;SDS011;53900;51.468;-2.586;2023-03-01T01:20:53;0.20;;;0.20;;
66966;SDS011;53900;51.468;-2.586;2023-03-01T01:23:18;0.45;;;0.40;;
66966;SDS011;53900;51.468;-2.586;2023-03-01T01:25:43;0.35;;;0.30;;
66966;SDS011;53900;51.468;-2.586;2023-03-01T01:28:09;0.20;;;0.20;;
66966;SDS011;53900;51.468;-2.586;2023-03-01T01:30:34;0.90;;;0.30;;
66966;SDS011;53900;51.468;-2.586;2023-03-01T01:32:59;0.35;;;0.30;;
66966;SDS011;53900;51.468;-2.586;2023-03-01T01:35:24;1.75;;;0.22;;
66966;SDS011;53900;51.468;-2.586;2023-03-01T01:37:49;0.30;;;0.25;;
66966;SDS011;53900;51.468;-2.586;2023-03-01T01:40:15;0.90;;;0.40;;
66966;SDS011;53900;51.468;-2.586;2023-03-01T01:42:40;1.60;;;0.43;;
66966;SDS011;53900;51.468;-2.586;2023-03-01T01:47:49;0.47;;;0.30;;
66966;SDS011;53900;51.468;-2.586;2023-03-01T01:50:15;0.30;;;0.30;;
66966;SDS011;53900;51.468;-2.586;2023-03-01T01:52:43;0.98;;;0.60;;
66966;SDS011;53900;51.468;-2.586;2023-03-01T01:55:08;0.30;;;0.30;;
66966;SDS011;53900;51.468;-2.586;2023-03-01T01:57:37;2.63;;;0.50;;
66966;SDS011;53900;51.468;-2.586;2023-03-01T02:00:08;0.50;;;0.30;;
66966;SDS011;53900;51.468;-2.586;2023-03-01T02:02:33;0.50;;;0.30;;
66966;SDS011;53900;51.468;-2.586;2023-03-01T02:05:02;0.20;;;0.20;;
66966;SDS011;53900;51.468;-2.586;2023-03-01T02:07:28;1.20;;;0.30;;
66966;SDS011;53900;51.468;-2.586;2023-03-01T02:09:54;0.30;;;0.30;;
66966;SDS011;53900;51.468;-2.586;2023-03-01T02:12:20;0.47;;;0.30;;
66966;SDS011;53900;51.468;-2.586;2023-03-01T02:14:47;0.10;;;0.10;;
66966;SDS011;53900;51.468;-2.586;2023-03-01T02:17:13;0.52;;;0.30;;
66966;SDS011;53900;51.468;-2.586;2023-03-01T02:22:30;0.73;;;0.20;;
66966;SDS011;53900;51.468;-2.586;2023-03-01T02:25:05;0.32;;;0.30;;
66966;SDS011;53900;51.468;-2.586;2023-03-01T02:27:41;1.83;;;0.50;;
66966;SDS011;53900;51.468;-2.586;2023-03-01T02:30:08;1.25;;;0.30;;
66966;SDS011;53900;51.468;-2.586;2023-03-01T02:32:37;0.57;;;0.40;;
66966;SDS011;53900;51.468;-2.586;2023-03-01T02:35:03;1.02;;;0.50;;
66966;SDS011;53900;51.468;-2.586;2023-03-01T02:37:31;3.00;;;0.47;;
66966;SDS011;53900;51.468;-2.586;2023-03-01T02:39:58;1.00;;;0.40;;
66966;SDS011;53900;51.468;-2.586;2023-03-01T02:42:26;0.70;;;0.40;;
66966;SDS011;53900;51.468;-2.586;2023-03-01T02:44:51;0.28;;;0.20;;
66966;SDS011;53900;51.468;-2.586;2023-03-01T02:47:16;1.98;;;0.40;;
66966;SDS011;53900;51.468;-2.586;2023-03-01T02:49:42;0.68;;;0.40;;
66966;SDS011;53900;51.468;-2.586;2023-03-01T02:54:43;2.00;;;0.40;;
66966;SDS011;53900;51.468;-2.586;2023-03-01T02:57:11;1.17;;;0.40;;
66966;SDS011;53900;51.468;-2.586;2023-03-01T02:59:37;0.40;;;0.40;;
66966;SDS011;53900;51.468;-2.586;2023-03-01T03:02:08;1.83;;;0.50;;
66966;SDS011;53900;51.468;-2.586;2023-03-01T03:04:45;2.35;;;0.60;;
66966;SDS011;53900;51.468;-2.586;2023-03-01T03:07:10;0.43;;;0.43;;
66966;SDS011;53900;51.468;-2.586;2023-03-01T03:09:35;3.08;;;0.70;;
66966;SDS011;53900;51.468;-2.586;2023-03-01T03:12:00;3.22;;;0.77;;
66966;SDS011;53900;51.468;-2.586;2023-03-01T03:14:26;5.07;;;0.90;;
66966;SDS011;53900;51.468;-2.586;2023-03-01T03:16:51;0.75;;;0.60;;
66966;SDS011;53900;51.468;-2.586;2023-03-01T03:19:17;1.85;;;0.70;;
66966;SDS011;53900;51.468;-2.586;2023-03-01T03:21:42;1.00;;;0.60;;
66966;SDS011;53900;51.468;-2.586;2023-03-01T03:24:07;1.80;;;0.70;;
66966;SDS011;53900;51.468;-2.586;2023-03-01T03:26:33;2.83;;;0.90;;
66966;SDS011;53900;51.468;-2.586;2023-03-01T03:28:58;0.75;;;0.57;;
66966;SDS011;53900;51.468;-2.586;2023-03-01T03:31:23;2.35;;;0.70;;
66966;SDS011;53900;51.468;-2.586;2023-03-01T03:33:48;2.33;;;0.65;;
66966;SDS011;53900;51.468;-2.586;2023-03-01T03:36:18;0.55;;;0.55;;
66966;SDS011;53900;51.468;-2.586;2023-03-01T03:38:44;0.90;;;0.50;;
66966;SDS011;53900;51.468;-2.586;2023-03-01T03:41:11;2.17;;;1.05;;
66966;SDS011;53900;51.468;-2.586;2023-03-01T03:43:37;0.95;;;0.50;;
66966;SDS011;53900;51.468;-2.586;2023-03-01T03:46:02;1.75;;;0.50;;
66966;SDS011;53900;51.468;-2.586;2023-03-01T03:48:35;1.80;;;0.60;;
66966;SDS011;53900;51.468;-2.586;2023-03-01T03:51:00;1.13;;;0.40;;
66966;SDS011;53900;51.468;-2.586;2023-03-01T03:53:26;1.98;;;0.70;;
66966;SDS011;53900;51.468;-2.586;2023-03-01T03:55:52;1.13;;;0.50;;
66966;SDS011;53900;51.468;-2.586;2023-03-01T03:58:18;2.65;;;0.50;;
66966;SDS011;53900;51.468;-2.586;2023-03-01T04:00:45;0.47;;;0.47;;
66966;SDS011;53900;51.468;-2.586;2023-03-01T04:03:11;0.88;;;0.52;;
66966;SDS011;53900;51.468;-2.586;2023-03-01T04:05:36;1.40;;;0.50;;
66966;SDS011;53900;51.468;-2.586;2023-03-01T04:08:02;1.23;;;0.40;;
66966;SDS011;53900;51.468;-2.586;2023-03-01T04:10:28;1.20;;;0.65;;
66966;SDS011;53900;51.468;-2.586;2023-03-01T04:12:54;2.40;;;0.60;;
66966;SDS011;53900;51.468;-2.586;2023-03-01T04:15:21;0.95;;;0.50;;
66966;SDS011;53900;51.468;-2.586;2023-03-01T04:17:49;1.85;;;0.40;;
66966;SDS011;53900;51.468;-2.586;2023-03-01T04:20:15;0.73;;;0.45;;
66966;SDS011;53900;51.468;-2.586;2023-03-01T04:22:49;2.47;;;0.50;;
66966;SDS011;53900;51.468;-2.586;2023-03-01T04:25:15;0.73;;;0.40;;
66966;SDS011;53900;51.468;-2.586;2023-03-01T04:27:40;1.27;;;0.50;;
66966;SDS011;53900;51.468;-2.586;2023-03-01T04:30:06;0.50;;;0.40;;
66966;SDS011;53900;51.468;-2.586;2023-03-01T04:32:32;0.88;;;0.45;;
66966;SDS011;53900;51.468;-2.586;2023-03-01T04:34:57;0.82;;;0.32;;
66966;SDS011;53900;51.468;-2.586;2023-03-01T04:37:22;1.05;;;0.50;;
66966;SDS011;53900;51.468;-2.586;2023-03-01T04:39:49;1.38;;;0.43;;
66966;SDS011;53900;51.468;-2.586;2023-03-01T04:42:14;0.75;;;0.50;;
66966;SDS011;53900;51.468;-2.586;2023-03-01T04:44:40;0.57;;;0.40;;
66966;SDS011;53900;51.468;-2.586;2023-03-01T04:47:05;0.73;;;0.35;;
66966;SDS011;53900;51.468;-2.586;2023-03-01T04:49:30;0.68;;;0.55;;
66966;SDS011;53900;51.468;-2.586;2023-03-01T04:51:56;2.05;;;0.70;;
66966;SDS011;53900;51.468;-2.586;2023-03-01T04:54:23;0.93;;;0.50;;
66966;SDS011;53900;51.468;-2.586;2023-03-01T04:56:48;1.92;;;0.50;;
66966;SDS011;53900;51.468;-2.586;2023-03-01T04:59:13;1.10;;;0.40;;
66966;SDS011;53900;51.468;-2.586;2023-03-01T05:01:38;0.63;;;0.50;;
66966;SDS011;53900;51.468;-2.586;2023-03-01T05:04:04;2.25;;;0.70;;
66966;SDS011;53900;51.468;-2.586;2023-03-01T05:06:30;2.42;;;1.02;;
66966;SDS011;53900;51.468;-2.586;2023-03-01T05:08:55;2.35;;;1.00;;
66966;SDS011;53900;51.468;-2.586;2023-03-01T05:11:21;2.17;;;0.90;;
66966;SDS011;53900;51.468;-2.586;2023-03-01T05:13:46;2.47;;;1.10;;
66966;SDS011;53900;51.468;-2.586;2023-03-01T05:16:11;1.60;;;1.20;;
66966;SDS011;53900;51.468;-2.586;2023-03-01T05:18:37;4.57;;;1.10;;
66966;SDS011;53900;51.468;-2.586;2023-03-01T05:21:06;0.90;;;0.73;;
66966;SDS011;53900;51.468;-2.586;2023-03-01T05:23:32;2.55;;;1.05;;
66966;SDS011;53900;51.468;-2.586;2023-03-01T05:26:01;1.15;;;0.80;;
66966;SDS011;53900;51.468;-2.586;2023-03-01T05:28:27;1.40;;;0.82;;
66966;SDS011;53900;51.468;-2.586;2023-03-01T05:30:55;1.05;;;0.90;;
66966;SDS011;53900;51.468;-2.586;2023-03-01T05:33:20;0.90;;;0.90;;
66966;SDS011;53900;51.468;-2.586;2023-03-01T05:35:47;3.28;;;1.50;;
66966;SDS011;53900;51.468;-2.586;2023-03-01T05:38:13;0.80;;;0.80;;
66966;SDS011;53900;51.468;-2.586;2023-03-01T05:40:39;1.70;;;1.10;;
66966;SDS011;53900;51.468;-2.586;2023-03-01T05:43:05;4.15;;;1.30;;
66966;SDS011;53900;51.468;-2.586;2023-03-01T05:45:30;3.63;;;1.30;;
66966;SDS011;53900;51.468;-2.586;2023-03-01T05:47:57;2.10;;;1.25;;
66966;SDS011;53900;51.468;-2.586;2023-03-01T05:50:23;2.00;;;1.45;;
66966;SDS011;53900;51.468;-2.586;2023-03-01T05:52:51;5.80;;;1.40;;
66966;SDS011;53900;51.468;-2.586;2023-03-01T05:55:17;2.10;;;1.38;;
66966;SDS011;53900;51.468;-2.586;2023-03-01T05:57:42;2.40;;;1.20;;
66966;SDS011;53900;51.468;-2.586;2023-03-01T06:00:08;2.85;;;1.30;;
66966;SDS011;53900;51.468;-2.586;2023-03-01T06:02:33;2.88;;;1.30;;
66966;SDS011;53900;51.468;-2.586;2023-03-01T06:04:58;2.75;;;1.27;;
66966;SDS011;53900;51.468;-2.586;2023-03-01T06:07:24;2.60;;;1.20;;
66966;SDS011;53900;51.468;-2.586;2023-03-01T06:09:49;2.72;;;1.50;;
66966;SDS011;53900;51.468;-2.586;2023-03-01T06:12:14;1.35;;;1.20;;
66966;SDS011;53900;51.468;-2.586;2023-03-01T06:14:39;4.32;;;1.60;;
66966;SDS011;53900;51.468;-2.586;2023-03-01T06:17:04;1.75;;;1.40;;
66966;SDS011;53900;51.468;-2.586;2023-03-01T06:19:30;1.95;;;1.30;;
66966;SDS011;53900;51.468;-2.586;2023-03-01T06:21:55;2.55;;;1.50;;
66966;SDS011;53900;51.468;-2.586;2023-03-01T06:24:20;2.22;;;2.00;;
66966;SDS011;53900;51.468;-2.586;2023-03-01T06:26:45;4.00;;;2.03;;
66966;SDS011;53900;51.468;-2.586;2023-03-01T06:29:10;3.90;;;2.20;;
66966;SDS011;53900;51.468;-2.586;2023-03-01T06:31:36;3.83;;;2.25;;
66966;SDS011;53900;51.468;-2.586;2023-03-01T06:34:01;2.53;;;2.30;;
66966;SDS011;53900;51.468;-2.586;2023-03-01T06:36:26;5.57;;;2.38;;
66966;SDS011;53900;51.468;-2.586;2023-03-01T06:38:52;4.68;;;2.28;;
66966;SDS011;53900;51.468;-2.586;2023-03-01T06:41:17;4.68;;;2.50;;
66966;SDS011;53900;51.468;-2.586;2023-03-01T06:43:42;4.75;;;2.60;;
66966;SDS011;53900;51.468;-2.586;2023-03-01T06:46:07;4.82;;;2.30;;
66966;SDS011;53900;51.468;-2.586;2023-03-01T06:48:33;4.95;;;2.30;;
66966;SDS011;53900;51.468;-2.586;2023-03-01T06:50:59;2.83;;;2.10;;
66966;SDS011;53900;51.468;-2.586;2023-03-01T06:53:25;2.55;;;2.10;;
66966;SDS011;53900;51.468;-2.586;2023-03-01T06:55:54;4.03;;;2.10;;
66966;SDS011;53900;51.468;-2.586;2023-03-01T06:58:19;3.67;;;2.22;;
66966;SDS011;53900;51.468;-2.586;2023-03-01T07:00:45;3.90;;;2.30;;
66966;SDS011;53900;51.468;-2.586;2023-03-01T07:03:10;4.97;;;2.28;;
66966;SDS011;53900;51.468;-2.586;2023-03-01T07:05:35;2.78;;;1.80;;
66966;SDS011;53900;51.468;-2.586;2023-03-01T07:08:00;3.20;;;1.83;;
66966;SDS011;53900;51.468;-2.586;2023-03-01T07:10:26;5.47;;;2.50;;
66966;SDS011;53900;51.468;-2.586;2023-03-01T07:12:54;8.13;;;2.30;;
66966;SDS011;53900;51.468;-2.586;2023-03-01T07:15:19;9.48;;;2.00;;
66966;SDS011;53900;51.468;-2.586;2023-03-01T07:17:44;5.03;;;1.90;;
66966;SDS011;53900;51.468;-2.586;2023-03-01T07:20:12;6.50;;;1.73;;
66966;SDS011;53900;51.468;-2.586;2023-03-01T07:22:39;2.63;;;1.60;;
66966;SDS011;53900;51.468;-2.586;2023-03-01T07:25:04;2.53;;;1.63;;
66966;SDS011;53900;51.468;-2.586;2023-03-01T07:27:29;1.88;;;1.50;;
66966;SDS011;53900;51.468;-2.586;2023-03-01T07:29:55;3.63;;;1.38;;
66966;SDS011;53900;51.468;-2.586;2023-03-01T07:32:20;2.42;;;1.38;;
66966;SDS011;53900;51.468;-2.586;2023-03-01T07:34:45;2.13;;;1.40;;
66966;SDS011;53900;51.468;-2.586;2023-03-01T07:37:10;2.38;;;1.30;;
66966;SDS011;53900;51.468;-2.586;2023-03-01T07:39:35;2.20;;;1.40;;
66966;SDS011;53900;51.468;-2.586;2023-03-01T07:42:01;2.95;;;1.40;;
66966;SDS011;53900;51.468;-2.586;2023-03-01T07:44:26;3.35;;;1.20;;
66966;SDS011;53900;51.468;-2.586;2023-03-01T07:46:51;1.73;;;1.13;;
66966;SDS011;53900;51.468;-2.586;2023-03-01T07:49:21;1.35;;;1.05;;
66966;SDS011;53900;51.468;-2.586;2023-03-01T07:51:46;2.63;;;1.30;;
66966;SDS011;53900;51.468;-2.586;2023-03-01T07:54:11;3.50;;;1.60;;
66966;SDS011;53900;51.468;-2.586;2023-03-01T07:56:36;4.60;;;1.23;;
66966;SDS011;53900;51.468;-2.586;2023-03-01T07:59:01;2.70;;;1.10;;
66966;SDS011;53900;51.468;-2.586;2023-03-01T08:01:27;2.17;;;1.08;;
66966;SDS011;53900;51.468;-2.586;2023-03-01T08:03:52;3.65;;;1.00;;
66966;SDS011;53900;51.468;-2.586;2023-03-01T08:06:17;1.75;;;0.85;;
66966;SDS011;53900;51.468;-2.586;2023-03-01T08:08:43;2.13;;;1.00;;
66966;SDS011;53900;51.468;-2.586;2023-03-01T08:11:14;4.70;;;1.02;;
66966;SDS011;53900;51.468;-2.586;2023-03-01T08:13:39;3.15;;;1.05;;
66966;SDS011;53900;51.468;-2.586;2023-03-01T08:16:05;0.80;;;0.80;;
66966;SDS011;53900;51.468;-2.586;2023-03-01T08:18:31;2.78;;;0.93;;
66966;SDS011;53900;51.468;-2.586;2023-03-01T08:21:03;10.35;;;1.25;;
66966;SDS011;53900;51.468;-2.586;2023-03-01T08:23:29;2.00;;;1.10;;
66966;SDS011;53900;51.468;-2.586;2023-03-01T08:25:55;3.45;;;1.20;;
66966;SDS011;53900;51.468;-2.586;2023-03-01T08:28:20;8.50;;;1.80;;
66966;SDS011;53900;51.468;-2.586;2023-03-01T08:30:45;5.05;;;1.05;;
66966;SDS011;53900;51.468;-2.586;2023-03-01T08:33:10;1.33;;;0.77;;
66966;SDS011;53900;51.468;-2.586;2023-03-01T08:35:36;6.97;;;0.77;;
66966;SDS011;53900;51.468;-2.586;2023-03-01T08:38:01;1.23;;;0.80;;
66966;SDS011;53900;51.468;-2.586;2023-03-01T08:40:26;1.15;;;0.63;;
66966;SDS011;53900;51.468;-2.586;2023-03-01T08:42:51;1.48;;;0.70;;
66966;SDS011;53900;51.468;-2.586;2023-03-01T08:45:17;0.63;;;0.60;;
66966;SDS011;53900;51.468;-2.586;2023-03-01T08:47:43;3.00;;;0.80;;
66966;SDS011;53900;51.468;-2.586;2023-03-01T08:50:09;0.98;;;0.75;;
66966;SDS011;53900;51.468;-2.586;2023-03-01T08:52:34;1.98;;;1.00;;
66966;SDS011;53900;51.468;-2.586;2023-03-01T08:55:00;2.22;;;1.17;;
66966;SDS011;53900;51.468;-2.586;2023-03-01T08:57:26;1.42;;;1.30;;
66966;SDS011;53900;51.468;-2.586;2023-03-01T08:59:51;4.07;;;1.40;;
66966;SDS011;53900;51.468;-2.586;2023-03-01T09:02:17;2.42;;;1.17;;
66966;SDS011;53900;51.468;-2.586;2023-03-01T09:04:42;6.20;;;1.90;;
66966;SDS011;53900;51.468;-2.586;2023-03-01T09:07:08;2.97;;;1.40;;
66966;SDS011;53900;51.468;-2.586;2023-03-01T09:09:33;2.88;;;1.80;;
66966;SDS011;53900;51.468;-2.586;2023-03-01T09:11:59;5.10;;;2.55;;
66966;SDS011;53900;51.468;-2.586;2023-03-01T09:14:24;2.97;;;1.70;;
66966;SDS011;53900;51.468;-2.586;2023-03-01T09:16:49;2.42;;;1.73;;
66966;SDS011;53900;51.468;-2.586;2023-03-01T09:19:15;5.18;;;1.90;;
66966;SDS011;53900;51.468;-2.586;2023-03-01T09:21:41;3.10;;;1.55;;
66966;SDS011;53900;51.468;-2.586;2023-03-01T09:24:17;2.35;;;1.55;;
66966;SDS011;53900;51.468;-2.586;2023-03-01T09:26:42;2.13;;;1.45;;
66966;SDS011;53900;51.468;-2.586;2023-03-01T09:29:11;1.92;;;1.58;;
66966;SDS011;53900;51.468;-2.586;2023-03-01T09:31:36;2.70;;;1.50;;
66966;SDS011;53900;51.468;-2.586;2023-03-01T09:34:01;1.48;;;1.30;;
66966;SDS011;53900;51.468;-2.586;2023-03-01T09:36:26;4.00;;;1.33;;
66966;SDS011;53900;51.468;-2.586;2023-03-01T09:38:52;4.38;;;1.67;;
66966;SDS011;53900;51.468;-2.586;2023-03-01T09:44:15;3.90;;;1.60;;
66966;SDS011;53900;51.468;-2.586;2023-03-01T09:46:42;1.95;;;1.58;;
66966;SDS011;53900;51.468;-2.586;2023-03-01T09:49:18;5.47;;;1.23;;
66966;SDS011;53900;51.468;-2.586;2023-03-01T09:51:48;3.05;;;1.55;;
66966;SDS011;53900;51.468;-2.586;2023-03-01T09:54:18;3.28;;;1.23;;
66966;SDS011;53900;51.468;-2.586;2023-03-01T09:56:51;3.30;;;1.73;;
66966;SDS011;53900;51.468;-2.586;2023-03-01T10:01:46;2.05;;;1.63;;
66966;SDS011;53900;51.468;-2.586;2023-03-01T10:06:49;3.22;;;1.80;;
66966;SDS011;53900;51.468;-2.586;2023-03-01T10:09:20;1.63;;;1.27;;
66966;SDS011;53900;51.468;-2.586;2023-03-01T10:11:50;1.48;;;1.30;;
66966;SDS011;53900;51.468;-2.586;2023-03-01T10:16:52;1.00;;;0.90;;
66966;SDS011;53900;51.468;-2.586;2023-03-01T10:19:24;1.20;;;1.10;;
66966;SDS011;53900;51.468;-2.586;2023-03-01T10:21:50;1.92;;;1.17;;
66966;SDS011;53900;51.468;-2.586;2023-03-01T10:24:16;1.40;;;1.20;;
66966;SDS011;53900;51.468;-2.586;2023-03-01T10:26:48;1.13;;;0.88;;
66966;SDS011;53900;51.468;-2.586;2023-03-01T10:31:46;1.05;;;0.93;;
66966;SDS011;53900;51.468;-2.586;2023-03-01T10:34:15;1.15;;;0.88;;
66966;SDS011;53900;51.468;-2.586;2023-03-01T10:36:41;2.08;;;0.80;;
66966;SDS011;53900;51.468;-2.586;2023-03-01T10:39:14;3.05;;;0.70;;
66966;SDS011;53900;51.468;-2.586;2023-03-01T10:41:45;1.40;;;0.90;;
66966;SDS011;53900;51.468;-2.586;2023-03-01T10:44:34;2.28;;;1.08;;
66966;SDS011;53900;51.468;-2.586;2023-03-01T10:47:00;1.17;;;1.00;;
66966;SDS011;53900;51.468;-2.586;2023-03-01T10:49:26;1.77;;;1.00;;
66966;SDS011;53900;51.468;-2.586;2023-03-01T10:51:51;0.93;;;0.80;;
66966;SDS011;53900;51.468;-2.586;2023-03-01T10:54:26;0.93;;;0.70;;
66966;SDS011;53900;51.468;-2.586;2023-03-01T10:56:56;1.45;;;1.17;;
66966;SDS011;53900;51.468;-2.586;2023-03-01T11:02:00;1.80;;;0.90;;
66966;SDS011;53900;51.468;-2.586;2023-03-01T11:04:26;3.70;;;1.20;;
66966;SDS011;53900;51.468;-2.586;2023-03-01T11:06:58;2.95;;;1.30;;
66966;SDS011;53900;51.468;-2.586;2023-03-01T11:09:23;4.25;;;1.38;;
66966;SDS011;53900;51.468;-2.586;2023-03-01T11:11:52;1.40;;;1.20;;
66966;SDS011;53900;51.468;-2.586;2023-03-01T11:16:47;1.77;;;1.00;;
66966;SDS011;53900;51.468;-2.586;2023-03-01T11:24:03;1.50;;;0.93;;
66966;SDS011;53900;51.468;-2.586;2023-03-01T11:26:29;3.70;;;1.30;;
66966;SDS011;53900;51.468;-2.586;2023-03-01T11:28:56;2.08;;;1.20;;
66966;SDS011;53900;51.468;-2.586;2023-03-01T11:31:23;3.90;;;1.33;;
66966;SDS011;53900;51.468;-2.586;2023-03-01T11:38:48;2.42;;;1.33;;
66966;SDS011;53900;51.468;-2.586;2023-03-01T11:41:17;32.85;;;2.20;;
66966;SDS011;53900;51.468;-2.586;2023-03-01T11:49:14;1.30;;;1.20;;
66966;SDS011;53900;51.468;-2.586;2023-03-01T11:54:32;1.65;;;1.13;;
66966;SDS011;53900;51.468;-2.586;2023-03-01T11:57:04;4.55;;;1.45;;
66966;SDS011;53900;51.468;-2.586;2023-03-01T11:59:44;3.08;;;0.93;;
66966;SDS011;53900;51.468;-2.586;2023-03-01T12:38:14;2.15;;;1.60;;
66966;SDS011;53900;51.468;-2.586;2023-03-01T12:40:52;3.72;;;1.90;;
66966;SDS011;53900;51.468;-2.586;2023-03-01T12:48:39;2.13;;;1.55;;
66966;SDS011;53900;51.468;-2.586;2023-03-01T12:51:07;4.15;;;2.03;;
66966;SDS011;53900;51.468;-2.586;2023-03-01T12:53:36;2.25;;;1.60;;
66966;SDS011;53900;51.468;-2.586;2023-03-01T12:56:05;2.13;;;1.70;;
66966;SDS011;53900;51.468;-2.586;2023-03-01T13:09:18;3.20;;;2.10;;
66966;SDS011;53900;51.468;-2.586;2023-03-01T13:11:44;2.58;;;1.90;;
66966;SDS011;53900;51.468;-2.586;2023-03-01T13:16:48;2.58;;;1.75;;
66966;SDS011;53900;51.468;-2.586;2023-03-01T13:19:17;3.15;;;2.28;;
66966;SDS011;53900;51.468;-2.586;2023-03-01T13:21:43;4.38;;;2.50;;
66966;SDS011;53900;51.468;-2.586;2023-03-01T13:29:43;2.65;;;1.65;;
66966;SDS011;53900;51.468;-2.586;2023-03-01T13:32:19;2.50;;;2.00;;
66966;SDS011;53900;51.468;-2.586;2023-03-01T13:34:45;4.18;;;1.95;;
66966;SDS011;53900;51.468;-2.586;2023-03-01T13:37:18;5.65;;;1.90;;
66966;SDS011;53900;51.468;-2.586;2023-03-01T13:39:44;2.53;;;1.63;;
66966;SDS011;53900;51.468;-2.586;2023-03-01T13:44:53;2.83;;;1.85;;
66966;SDS011;53900;51.468;-2.586;2023-03-01T13:47:19;5.93;;;1.85;;
66966;SDS011;53900;51.468;-2.586;2023-03-01T13:49:48;2.90;;;1.88;;
66966;SDS011;53900;51.468;-2.586;2023-03-01T13:54:46;2.70;;;1.90;;
66966;SDS011;53900;51.468;-2.586;2023-03-01T13:57:12;4.75;;;1.90;;
66966;SDS011;53900;51.468;-2.586;2023-03-01T13:59:47;3.35;;;1.95;;
66966;SDS011;53900;51.468;-2.586;2023-03-01T14:02:12;2.50;;;1.70;;
66966;SDS011;53900;51.468;-2.586;2023-03-01T14:04:38;3.72;;;1.70;;
66966;SDS011;53900;51.468;-2.586;2023-03-01T14:07:12;2.78;;;1.60;;
66966;SDS011;53900;51.468;-2.586;2023-03-01T14:09:42;3.40;;;1.65;;
66966;SDS011;53900;51.468;-2.586;2023-03-01T14:12:30;5.68;;;1.60;;
66966;SDS011;53900;51.468;-2.586;2023-03-01T14:19:59;3.33;;;1.27;;
66966;SDS011;53900;51.468;-2.586;2023-03-01T14:24:57;4.07;;;1.45;;
66966;SDS011;53900;51.468;-2.586;2023-03-01T14:27:27;3.80;;;1.70;;
66966;SDS011;53900;51.468;-2.586;2023-03-01T14:29:57;4.45;;;1.50;;
66966;SDS011;53900;51.468;-2.586;2023-03-01T14:32:27;2.03;;;1.45;;
66966;SDS011;53900;51.468;-2.586;2023-03-01T14:34:52;1.40;;;1.30;;
66966;SDS011;53900;51.468;-2.586;2023-03-01T14:37:28;3.22;;;1.58;;
66966;SDS011;53900;51.468;-2.586;2023-03-01T14:39:54;3.30;;;1.50;;
66966;SDS011;53900;51.468;-2.586;2023-03-01T14:42:21;3.47;;;1.52;;
66966;SDS011;53900;51.468;-2.586;2023-03-01T14:44:47;3.33;;;1.60;;
66966;SDS011;53900;51.468;-2.586;2023-03-01T14:47:16;6.03;;;1.98;;
66966;SDS011;53900;51.468;-2.586;2023-03-01T14:49:44;3.40;;;1.80;;
66966;SDS011;53900;51.468;-2.586;2023-03-01T14:52:17;3.63;;;1.88;;
66966;SDS011;53900;51.468;-2.586;2023-03-01T14:54:52;4.32;;;1.90;;
66966;SDS011;53900;51.468;-2.586;2023-03-01T14:57:19;2.83;;;1.60;;
66966;SDS011;53900;51.468;-2.586;2023-03-01T14:59:46;3.00;;;1.40;;
66966;SDS011;53900;51.468;-2.586;2023-03-01T15:02:13;2.97;;;1.30;;
66966;SDS011;53900;51.468;-2.586;2023-03-01T15:04:42;2.67;;;1.40;;
66966;SDS011;53900;51.468;-2.586;2023-03-01T15:07:09;4.45;;;1.83;;
66966;SDS011;53900;51.468;-2.586;2023-03-01T15:09:36;2.75;;;1.58;;
66966;SDS011;53900;51.468;-2.586;2023-03-01T15:12:23;5.47;;;2.00;;
66966;SDS011;53900;51.468;-2.586;2023-03-01T15:14:47;4.70;;;1.70;;
66966;SDS011;53900;51.468;-2.586;2023-03-01T15:17:30;2.03;;;1.35;;
66966;SDS011;53900;51.468;-2.586;2023-03-01T15:19:55;6.57;;;1.35;;
66966;SDS011;53900;51.468;-2.586;2023-03-01T15:22:20;2.40;;;1.42;;
66966;SDS011;53900;51.468;-2.586;2023-03-01T15:24:48;2.38;;;1.23;;
66966;SDS011;53900;51.468;-2.586;2023-03-01T15:27:17;2.20;;;1.38;;
66966;SDS011;53900;51.468;-2.586;2023-03-01T15:29:47;1.90;;;1.33;;
66966;SDS011;53900;51.468;-2.586;2023-03-01T15:32:32;3.80;;;1.45;;
66966;SDS011;53900;51.468;-2.586;2023-03-01T15:34:58;3.20;;;1.75;;
66966;SDS011;53900;51.468;-2.586;2023-03-01T15:37:38;2.58;;;1.48;;
66966;SDS011;53900;51.468;-2.586;2023-03-01T15:42:45;2.15;;;1.17;;
66966;SDS011;53900;51.468;-2.586;2023-03-01T15:47:40;3.38;;;1.50;;
66966;SDS011;53900;51.468;-2.586;2023-03-01T15:50:19;2.53;;;1.58;;
66966;SDS011;53900;51.468;-2.586;2023-03-01T15:52:45;2.33;;;1.25;;
66966;SDS011;53900;51.468;-2.586;2023-03-01T15:55:24;1.52;;;1.23;;
66966;SDS011;53900;51.468;-2.586;2023-03-01T15:58:09;2.45;;;1.50;;
66966;SDS011;53900;51.468;-2.586;2023-03-01T16:00:35;3.20;;;1.15;;
66966;SDS011;53900;51.468;-2.586;2023-03-01T16:03:00;3.38;;;1.35;;
66966;SDS011;53900;51.468;-2.586;2023-03-01T16:05:30;2.47;;;1.40;;
66966;SDS011;53900;51.468;-2.586;2023-03-01T16:07:56;2.88;;;1.60;;
66966;SDS011;53900;51.468;-2.586;2023-03-01T16:10:21;5.70;;;1.52;;
66966;SDS011;53900;51.468;-2.586;2023-03-01T16:12:47;3.30;;;1.33;;
66966;SDS011;53900;51.468;-2.586;2023-03-01T16:15:14;3.35;;;1.60;;
66966;SDS011;53900;51.468;-2.586;2023-03-01T16:17:40;6.95;;;1.90;;
66966;SDS011;53900;51.468;-2.586;2023-03-01T16:20:05;3.22;;;1.85;;
66966;SDS011;53900;51.468;-2.586;2023-03-01T16:22:31;4.57;;;1.85;;
66966;SDS011;53900;51.468;-2.586;2023-03-01T16:24:56;2.95;;;1.80;;
66966;SDS011;53900;51.468;-2.586;2023-03-01T16:27:21;7.68;;;2.60;;
66966;SDS011;53900;51.468;-2.586;2023-03-01T16:29:47;6.07;;;2.40;;
66966;SDS011;53900;51.468;-2.586;2023-03-01T16:32:12;7.57;;;2.80;;
66966;SDS011;53900;51.468;-2.586;2023-03-01T16:34:37;7.00;;;2.25;;